Huntingtown, Maryland
Current Conditions -  °F | °C
As of 8:02 PM on Sunday 23 Nov 2014 (Local Time) from KADW Reporting Station
Drizzle Drizzle  
Wind Chill: 52°   Ceiling: 2500
Heat Index: 52°   Visibility: 10mi
Dew Point: 46°   Wind: 7mph
Humidity: 82%   Direction: 130°SE
Pressure: 30"   Gusts: NA
Location:  38.62°N, 76.61°W
Report Text: KADW 240102Z AUTO 13006KT 10SM -DZ FEW006 BKN025 OVC060 11/08 A3000 RMK AO2
Loading
Personal Weather Stations






























Interactive Weather Map New forecast layout! Learn more

10-Day Weather Forecast

Advertisements
Track Severe Weather on mobile